sensor_id;sensor_type;location;lat;lon;timestamp;temperature;humidity
4002;DHT22;2015;48.670;9.060;2023-03-21T00:01:00;8.70;99.90
4002;DHT22;2015;48.670;9.060;2023-03-21T00:03:34;8.60;99.90
4002;DHT22;2015;48.670;9.060;2023-03-21T00:06:09;8.60;99.90
4002;DHT22;2015;48.670;9.060;2023-03-21T00:08:42;8.50;99.90
4002;DHT22;2015;48.670;9.060;2023-03-21T00:11:15;8.50;99.90
4002;DHT22;2015;48.670;9.060;2023-03-21T00:13:47;8.50;99.90
4002;DHT22;2015;48.670;9.060;2023-03-21T00:16:19;8.40;99.90
4002;DHT22;2015;48.670;9.060;2023-03-21T00:19:00;8.40;99.90
4002;DHT22;2015;48.670;9.060;2023-03-21T00:21:33;8.40;99.90
4002;DHT22;2015;48.670;9.060;2023-03-21T00:24:28;8.40;99.90
4002;DHT22;2015;48.670;9.060;2023-03-21T00:27:00;8.40;99.90
4002;DHT22;2015;48.670;9.060;2023-03-21T00:29:52;8.40;99.90
4002;DHT22;2015;48.670;9.060;2023-03-21T00:32:24;8.40;99.90
4002;DHT22;2015;48.670;9.060;2023-03-21T00:34:56;8.40;99.90
4002;DHT22;2015;48.670;9.060;2023-03-21T00:37:48;8.40;99.90
4002;DHT22;2015;48.670;9.060;2023-03-21T00:40:20;8.40;99.90
4002;DHT22;2015;48.670;9.060;2023-03-21T00:43:01;8.40;99.90
4002;DHT22;2015;48.670;9.060;2023-03-21T00:45:33;8.40;99.90
4002;DHT22;2015;48.670;9.060;2023-03-21T00:48:05;8.40;99.90
4002;DHT22;2015;48.670;9.060;2023-03-21T00:50:38;8.40;99.90
4002;DHT22;2015;48.670;9.060;2023-03-21T00:53:10;8.40;99.90
4002;DHT22;2015;48.670;9.060;2023-03-21T00:55:42;8.40;99.90
4002;DHT22;2015;48.670;9.060;2023-03-21T00:58:14;8.30;99.90
4002;DHT22;2015;48.670;9.060;2023-03-21T01:00:46;8.30;99.90
4002;DHT22;2015;48.670;9.060;2023-03-21T01:03:18;8.20;99.90
4002;DHT22;2015;48.670;9.060;2023-03-21T01:05:56;8.20;99.90
4002;DHT22;2015;48.670;9.060;2023-03-21T01:08:40;8.20;99.90
4002;DHT22;2015;48.670;9.060;2023-03-21T01:11:26;8.20;99.90
4002;DHT22;2015;48.670;9.060;2023-03-21T01:13:58;8.20;99.90
4002;DHT22;2015;48.670;9.060;2023-03-21T01:16:52;8.20;99.90
4002;DHT22;2015;48.670;9.060;2023-03-21T01:19:24;8.20;99.90
4002;DHT22;2015;48.670;9.060;2023-03-21T01:22:18;8.20;99.90
4002;DHT22;2015;48.670;9.060;2023-03-21T01:24:49;8.20;99.90
4002;DHT22;2015;48.670;9.060;2023-03-21T01:27:29;8.10;99.90
4002;DHT22;2015;48.670;9.060;2023-03-21T01:30:01;8.20;99.90
4002;DHT22;2015;48.670;9.060;2023-03-21T01:32:33;8.20;99.90
4002;DHT22;2015;48.670;9.060;2023-03-21T01:35:05;8.20;99.90
4002;DHT22;2015;48.670;9.060;2023-03-21T01:37:37;8.20;99.90
4002;DHT22;2015;48.670;9.060;2023-03-21T01:40:22;8.20;99.90
4002;DHT22;2015;48.670;9.060;2023-03-21T01:42:54;8.20;99.90
4002;DHT22;2015;48.670;9.060;2023-03-21T01:48:41;8.20;99.90
4002;DHT22;2015;48.670;9.060;2023-03-21T01:51:13;8.20;99.90
4002;DHT22;2015;48.670;9.060;2023-03-21T01:53:46;8.20;99.90
4002;DHT22;2015;48.670;9.060;2023-03-21T01:56:23;8.20;99.90
4002;DHT22;2015;48.670;9.060;2023-03-21T01:59:02;8.20;99.90
4002;DHT22;2015;48.670;9.060;2023-03-21T02:01:36;8.20;99.90
4002;DHT22;2015;48.670;9.060;2023-03-21T02:04:09;8.20;99.90
4002;DHT22;2015;48.670;9.060;2023-03-21T02:06:48;8.10;99.90
4002;DHT22;2015;48.670;9.060;2023-03-21T02:09:23;8.10;99.90
4002;DHT22;2015;48.670;9.060;2023-03-21T02:11:57;8.10;99.90
4002;DHT22;2015;48.670;9.060;2023-03-21T02:14:31;8.10;99.90
4002;DHT22;2015;48.670;9.060;2023-03-21T02:32:20;8.10;99.90
4002;DHT22;2015;48.670;9.060;2023-03-21T02:52:41;8.10;99.90
4002;DHT22;2015;48.670;9.060;2023-03-21T02:55:25;8.10;99.90
4002;DHT22;2015;48.670;9.060;2023-03-21T02:57:58;8.10;99.90
4002;DHT22;2015;48.670;9.060;2023-03-21T03:00:43;8.10;99.90
4002;DHT22;2015;48.670;9.060;2023-03-21T03:03:16;8.10;99.90
4002;DHT22;2015;48.670;9.060;2023-03-21T03:06:26;8.00;99.90
4002;DHT22;2015;48.670;9.060;2023-03-21T03:09:14;8.00;99.90
4002;DHT22;2015;48.670;9.060;2023-03-21T03:11:50;8.00;99.90
4002;DHT22;2015;48.670;9.060;2023-03-21T03:14:44;8.10;99.90
4002;DHT22;2015;48.670;9.060;2023-03-21T03:17:45;8.10;99.90
4002;DHT22;2015;48.670;9.060;2023-03-21T03:20:32;8.10;99.90
4002;DHT22;2015;48.670;9.060;2023-03-21T03:23:33;8.30;99.90
4002;DHT22;2015;48.670;9.060;2023-03-21T03:26:18;8.40;99.90
4002;DHT22;2015;48.670;9.060;2023-03-21T03:28:54;8.50;99.90
4002;DHT22;2015;48.670;9.060;2023-03-21T03:31:33;8.50;99.90
4002;DHT22;2015;48.670;9.060;2023-03-21T03:34:09;8.50;99.90
4002;DHT22;2015;48.670;9.060;2023-03-21T03:36:45;8.50;99.90
4002;DHT22;2015;48.670;9.060;2023-03-21T03:39:18;8.30;99.90
4002;DHT22;2015;48.670;9.060;2023-03-21T03:42:03;8.20;99.90
4002;DHT22;2015;48.670;9.060;2023-03-21T03:44:56;8.10;99.90
4002;DHT22;2015;48.670;9.060;2023-03-21T03:48:21;8.00;99.90
4002;DHT22;2015;48.670;9.060;2023-03-21T03:55:54;8.20;99.90
4002;DHT22;2015;48.670;9.060;2023-03-21T03:58:28;8.30;99.90
4002;DHT22;2015;48.670;9.060;2023-03-21T04:01:15;8.30;99.90
4002;DHT22;2015;48.670;9.060;2023-03-21T04:03:48;8.30;99.90
4002;DHT22;2015;48.670;9.060;2023-03-21T04:06:31;8.30;99.90
4002;DHT22;2015;48.670;9.060;2023-03-21T04:09:03;8.30;99.90
4002;DHT22;2015;48.670;9.060;2023-03-21T04:11:49;8.10;99.90
4002;DHT22;2015;48.670;9.060;2023-03-21T04:14:22;8.00;99.90
4002;DHT22;2015;48.670;9.060;2023-03-21T04:16:54;7.90;99.90
4002;DHT22;2015;48.670;9.060;2023-03-21T04:19:26;7.80;99.90
4002;DHT22;2015;48.670;9.060;2023-03-21T04:21:57;7.80;99.90
4002;DHT22;2015;48.670;9.060;2023-03-21T04:24:29;7.70;99.90
4002;DHT22;2015;48.670;9.060;2023-03-21T04:27:04;7.60;99.90
4002;DHT22;2015;48.670;9.060;2023-03-21T04:29:36;7.60;99.90
4002;DHT22;2015;48.670;9.060;2023-03-21T04:32:08;7.50;99.90
4002;DHT22;2015;48.670;9.060;2023-03-21T04:34:46;7.40;99.90
4002;DHT22;2015;48.670;9.060;2023-03-21T04:37:21;7.30;99.90
4002;DHT22;2015;48.670;9.060;2023-03-21T04:39:54;7.20;99.90
4002;DHT22;2015;48.670;9.060;2023-03-21T04:42:25;7.10;99.90
4002;DHT22;2015;48.670;9.060;2023-03-21T04:44:57;7.10;99.90
4002;DHT22;2015;48.670;9.060;2023-03-21T04:47:29;7.00;99.90
4002;DHT22;2015;48.670;9.060;2023-03-21T04:50:01;6.90;99.90
4002;DHT22;2015;48.670;9.060;2023-03-21T04:52:33;6.90;99.90
4002;DHT22;2015;48.670;9.060;2023-03-21T04:55:06;6.80;99.90
4002;DHT22;2015;48.670;9.060;2023-03-21T04:57:40;6.70;99.90
4002;DHT22;2015;48.670;9.060;2023-03-21T05:00:12;6.70;99.90
4002;DHT22;2015;48.670;9.060;2023-03-21T05:02:45;6.60;99.90
4002;DHT22;2015;48.670;9.060;2023-03-21T05:05:17;6.50;99.90
4002;DHT22;2015;48.670;9.060;2023-03-21T05:07:49;6.50;99.90
4002;DHT22;2015;48.670;9.060;2023-03-21T05:10:21;6.40;99.90
4002;DHT22;2015;48.670;9.060;2023-03-21T05:12:52;6.30;99.90
4002;DHT22;2015;48.670;9.060;2023-03-21T05:15:24;6.30;99.90
4002;DHT22;2015;48.670;9.060;2023-03-21T05:17:56;6.30;99.90
4002;DHT22;2015;48.670;9.060;2023-03-21T05:20:41;6.20;99.90
4002;DHT22;2015;48.670;9.060;2023-03-21T05:23:15;6.20;99.90
4002;DHT22;2015;48.670;9.060;2023-03-21T05:25:49;6.20;99.90
4002;DHT22;2015;48.670;9.060;2023-03-21T05:28:21;6.20;99.90
4002;DHT22;2015;48.670;9.060;2023-03-21T05:30:53;6.20;99.90
4002;DHT22;2015;48.670;9.060;2023-03-21T05:33:25;6.20;99.90
4002;DHT22;2015;48.670;9.060;2023-03-21T05:35:57;6.30;99.90
4002;DHT22;2015;48.670;9.060;2023-03-21T05:38:29;6.30;99.90
4002;DHT22;2015;48.670;9.060;2023-03-21T05:41:01;6.30;99.90
4002;DHT22;2015;48.670;9.060;2023-03-21T05:43:33;6.40;99.90
4002;DHT22;2015;48.670;9.060;2023-03-21T05:46:05;6.40;99.90
4002;DHT22;2015;48.670;9.060;2023-03-21T05:48:37;6.40;99.90
4002;DHT22;2015;48.670;9.060;2023-03-21T05:51:09;6.40;99.90
4002;DHT22;2015;48.670;9.060;2023-03-21T05:53:41;6.50;99.90
4002;DHT22;2015;48.670;9.060;2023-03-21T05:56:13;6.50;99.90
4002;DHT22;2015;48.670;9.060;2023-03-21T05:58:45;6.50;99.90
4002;DHT22;2015;48.670;9.060;2023-03-21T06:01:17;6.60;99.90
4002;DHT22;2015;48.670;9.060;2023-03-21T06:03:49;6.60;99.90
4002;DHT22;2015;48.670;9.060;2023-03-21T06:06:21;6.70;99.90
4002;DHT22;2015;48.670;9.060;2023-03-21T06:08:53;6.70;99.90
4002;DHT22;2015;48.670;9.060;2023-03-21T06:11:27;6.70;99.90
4002;DHT22;2015;48.670;9.060;2023-03-21T06:13:59;6.70;99.90
4002;DHT22;2015;48.670;9.060;2023-03-21T06:16:31;6.80;99.90
4002;DHT22;2015;48.670;9.060;2023-03-21T06:19:03;6.80;99.90
4002;DHT22;2015;48.670;9.060;2023-03-21T06:21:35;6.80;99.90
4002;DHT22;2015;48.670;9.060;2023-03-21T06:24:07;6.80;99.90
4002;DHT22;2015;48.670;9.060;2023-03-21T06:26:39;6.80;99.90
4002;DHT22;2015;48.670;9.060;2023-03-21T06:29:13;6.80;99.90
4002;DHT22;2015;48.670;9.060;2023-03-21T06:31:45;6.90;99.90
4002;DHT22;2015;48.670;9.060;2023-03-21T06:34:17;6.80;99.90
4002;DHT22;2015;48.670;9.060;2023-03-21T06:36:49;6.80;99.90
4002;DHT22;2015;48.670;9.060;2023-03-21T06:39:22;6.70;99.90
4002;DHT22;2015;48.670;9.060;2023-03-21T06:41:54;6.70;99.90
4002;DHT22;2015;48.670;9.060;2023-03-21T06:44:26;6.70;99.90
4002;DHT22;2015;48.670;9.060;2023-03-21T06:46:58;6.70;99.90
4002;DHT22;2015;48.670;9.060;2023-03-21T06:49:30;6.70;99.90
4002;DHT22;2015;48.670;9.060;2023-03-21T06:52:02;6.70;99.90
4002;DHT22;2015;48.670;9.060;2023-03-21T06:54:34;6.90;99.90
4002;DHT22;2015;48.670;9.060;2023-03-21T06:57:06;7.20;99.90
4002;DHT22;2015;48.670;9.060;2023-03-21T06:59:38;7.50;99.90
4002;DHT22;2015;48.670;9.060;2023-03-21T07:02:12;7.60;99.90
4002;DHT22;2015;48.670;9.060;2023-03-21T07:04:44;7.80;99.90
4002;DHT22;2015;48.670;9.060;2023-03-21T07:07:15;7.90;99.90
4002;DHT22;2015;48.670;9.060;2023-03-21T07:09:47;8.00;99.90
4002;DHT22;2015;48.670;9.060;2023-03-21T07:12:20;8.10;99.90
4002;DHT22;2015;48.670;9.060;2023-03-21T07:14:52;8.20;99.90
4002;DHT22;2015;48.670;9.060;2023-03-21T07:17:24;8.20;99.90
4002;DHT22;2015;48.670;9.060;2023-03-21T07:19:56;8.30;99.90
4002;DHT22;2015;48.670;9.060;2023-03-21T07:22:28;8.30;99.90
4002;DHT22;2015;48.670;9.060;2023-03-21T07:24:59;8.40;99.90
4002;DHT22;2015;48.670;9.060;2023-03-21T07:27:35;8.40;99.90
4002;DHT22;2015;48.670;9.060;2023-03-21T07:30:11;8.40;99.90
4002;DHT22;2015;48.670;9.060;2023-03-21T07:32:43;8.40;99.90
4002;DHT22;2015;48.670;9.060;2023-03-21T07:35:18;8.50;99.90
4002;DHT22;2015;48.670;9.060;2023-03-21T07:37:51;8.50;99.90
4002;DHT22;2015;48.670;9.060;2023-03-21T07:40:23;8.60;99.90
4002;DHT22;2015;48.670;9.060;2023-03-21T07:42:55;8.70;99.90
4002;DHT22;2015;48.670;9.060;2023-03-21T07:45:27;8.80;99.90
4002;DHT22;2015;48.670;9.060;2023-03-21T07:47:59;8.90;99.90
4002;DHT22;2015;48.670;9.060;2023-03-21T07:50:31;9.00;99.90
4002;DHT22;2015;48.670;9.060;2023-03-21T07:53:03;9.10;99.90
4002;DHT22;2015;48.670;9.060;2023-03-21T07:55:35;9.30;99.90
4002;DHT22;2015;48.670;9.060;2023-03-21T07:58:07;9.50;99.90
4002;DHT22;2015;48.670;9.060;2023-03-21T08:00:39;9.70;99.90
4002;DHT22;2015;48.670;9.060;2023-03-21T08:03:11;9.80;99.90
4002;DHT22;2015;48.670;9.060;2023-03-21T08:05:43;10.00;99.90
4002;DHT22;2015;48.670;9.060;2023-03-21T08:08:16;10.20;99.90
4002;DHT22;2015;48.670;9.060;2023-03-21T08:10:47;10.30;99.90
4002;DHT22;2015;48.670;9.060;2023-03-21T08:13:19;10.40;99.90
4002;DHT22;2015;48.670;9.060;2023-03-21T08:15:51;10.50;99.90
4002;DHT22;2015;48.670;9.060;2023-03-21T08:18:23;10.50;99.90
4002;DHT22;2015;48.670;9.060;2023-03-21T08:20:56;10.60;99.90
4002;DHT22;2015;48.670;9.060;2023-03-21T08:23:28;10.60;99.90
4002;DHT22;2015;48.670;9.060;2023-03-21T08:26:00;10.60;99.90
4002;DHT22;2015;48.670;9.060;2023-03-21T08:28:32;10.70;99.90
4002;DHT22;2015;48.670;9.060;2023-03-21T08:31:09;10.70;99.90
4002;DHT22;2015;48.670;9.060;2023-03-21T08:33:41;10.80;99.90
4002;DHT22;2015;48.670;9.060;2023-03-21T08:36:13;10.80;99.90
4002;DHT22;2015;48.670;9.060;2023-03-21T08:38:45;10.80;99.90
4002;DHT22;2015;48.670;9.060;2023-03-21T08:41:19;10.80;99.90
4002;DHT22;2015;48.670;9.060;2023-03-21T08:43:52;10.80;99.90
4002;DHT22;2015;48.670;9.060;2023-03-21T08:46:24;11.00;99.90
4002;DHT22;2015;48.670;9.060;2023-03-21T08:48:56;11.20;99.90
4002;DHT22;2015;48.670;9.060;2023-03-21T08:51:28;11.40;99.90
4002;DHT22;2015;48.670;9.060;2023-03-21T08:54:00;11.50;99.90
4002;DHT22;2015;48.670;9.060;2023-03-21T08:56:32;11.60;99.90
4002;DHT22;2015;48.670;9.060;2023-03-21T08:59:03;11.60;99.90
4002;DHT22;2015;48.670;9.060;2023-03-21T09:01:35;11.60;99.90
4002;DHT22;2015;48.670;9.060;2023-03-21T09:04:07;11.70;99.90
4002;DHT22;2015;48.670;9.060;2023-03-21T09:06:41;11.70;99.90
4002;DHT22;2015;48.670;9.060;2023-03-21T09:09:16;11.80;99.90
4002;DHT22;2015;48.670;9.060;2023-03-21T09:11:48;12.00;99.90
4002;DHT22;2015;48.670;9.060;2023-03-21T09:14:23;12.20;99.90
4002;DHT22;2015;48.670;9.060;2023-03-21T09:17:00;12.40;99.90
4002;DHT22;2015;48.670;9.060;2023-03-21T09:19:31;12.50;99.90
4002;DHT22;2015;48.670;9.060;2023-03-21T09:22:03;12.50;99.90
4002;DHT22;2015;48.670;9.060;2023-03-21T09:24:35;12.50;99.90
4002;DHT22;2015;48.670;9.060;2023-03-21T09:27:07;12.70;99.90
4002;DHT22;2015;48.670;9.060;2023-03-21T09:29:39;12.90;99.90
4002;DHT22;2015;48.670;9.060;2023-03-21T09:32:13;13.20;99.90
4002;DHT22;2015;48.670;9.060;2023-03-21T09:34:45;13.50;99.90
4002;DHT22;2015;48.670;9.060;2023-03-21T09:37:19;13.90;99.90
4002;DHT22;2015;48.670;9.060;2023-03-21T09:39:51;14.50;99.90
4002;DHT22;2015;48.670;9.060;2023-03-21T09:42:42;15.10;99.90
4002;DHT22;2015;48.670;9.060;2023-03-21T09:45:26;16.10;99.90
4002;DHT22;2015;48.670;9.060;2023-03-21T09:48:04;17.20;99.90
4002;DHT22;2015;48.670;9.060;2023-03-21T09:50:38;17.00;99.90
4002;DHT22;2015;48.670;9.060;2023-03-21T09:53:43;17.50;99.90
4002;DHT22;2015;48.670;9.060;2023-03-21T09:56:17;18.40;99.90
4002;DHT22;2015;48.670;9.060;2023-03-21T09:58:53;18.80;99.90
4002;DHT22;2015;48.670;9.060;2023-03-21T10:01:30;18.80;99.90
4002;DHT22;2015;48.670;9.060;2023-03-21T10:04:14;18.70;99.90
4002;DHT22;2015;48.670;9.060;2023-03-21T10:06:58;18.40;99.90
4002;DHT22;2015;48.670;9.060;2023-03-21T10:09:31;18.40;99.40
4002;DHT22;2015;48.670;9.060;2023-03-21T10:12:13;18.30;98.60
4002;DHT22;2015;48.670;9.060;2023-03-21T10:14:50;18.00;99.70
4002;DHT22;2015;48.670;9.060;2023-03-21T10:17:29;18.20;98.70
4002;DHT22;2015;48.670;9.060;2023-03-21T10:22:51;19.20;97.00
4002;DHT22;2015;48.670;9.060;2023-03-21T10:25:36;19.00;96.90
4002;DHT22;2015;48.670;9.060;2023-03-21T10:28:19;19.30;95.40
4002;DHT22;2015;48.670;9.060;2023-03-21T10:30:53;19.40;95.70
4002;DHT22;2015;48.670;9.060;2023-03-21T10:33:31;19.20;94.80
4002;DHT22;2015;48.670;9.060;2023-03-21T10:36:17;18.70;95.50
4002;DHT22;2015;48.670;9.060;2023-03-21T10:39:05;18.20;95.60
4002;DHT22;2015;48.670;9.060;2023-03-21T10:41:37;18.20;96.10
4002;DHT22;2015;48.670;9.060;2023-03-21T10:44:13;18.00;97.20
4002;DHT22;2015;48.670;9.060;2023-03-21T10:46:53;17.60;97.20
4002;DHT22;2015;48.670;9.060;2023-03-21T10:49:29;17.20;99.30
4002;DHT22;2015;48.670;9.060;2023-03-21T10:52:08;17.20;99.90
4002;DHT22;2015;48.670;9.060;2023-03-21T10:54:41;16.70;98.30
4002;DHT22;2015;48.670;9.060;2023-03-21T10:57:21;16.30;99.50
4002;DHT22;2015;48.670;9.060;2023-03-21T10:59:58;16.30;99.90
4002;DHT22;2015;48.670;9.060;2023-03-21T11:02:33;16.40;99.90
4002;DHT22;2015;48.670;9.060;2023-03-21T11:05:20;16.40;99.90
4002;DHT22;2015;48.670;9.060;2023-03-21T11:07:59;16.50;99.90
4002;DHT22;2015;48.670;9.060;2023-03-21T11:10:34;16.30;99.90
4002;DHT22;2015;48.670;9.060;2023-03-21T11:13:17;16.00;99.90
4002;DHT22;2015;48.670;9.060;2023-03-21T11:15:57;15.90;99.90
4002;DHT22;2015;48.670;9.060;2023-03-21T11:18:30;15.90;99.90
4002;DHT22;2015;48.670;9.060;2023-03-21T11:21:06;15.80;99.90
4002;DHT22;2015;48.670;9.060;2023-03-21T11:23:47;15.70;99.90
4002;DHT22;2015;48.670;9.060;2023-03-21T11:26:39;15.80;99.90
4002;DHT22;2015;48.670;9.060;2023-03-21T11:34:53;15.30;99.90
4002;DHT22;2015;48.670;9.060;2023-03-21T11:37:38;15.20;99.90
4002;DHT22;2015;48.670;9.060;2023-03-21T11:42:48;15.20;99.90
4002;DHT22;2015;48.670;9.060;2023-03-21T11:45:24;15.30;99.90
4002;DHT22;2015;48.670;9.060;2023-03-21T11:48:01;15.40;99.90
4002;DHT22;2015;48.670;9.060;2023-03-21T11:50:39;15.50;99.90
4002;DHT22;2015;48.670;9.060;2023-03-21T11:53:24;15.50;99.90
4002;DHT22;2015;48.670;9.060;2023-03-21T12:02:31;15.30;99.90
4002;DHT22;2015;48.670;9.060;2023-03-21T12:10:34;15.20;99.90
4002;DHT22;2015;48.670;9.060;2023-03-21T12:13:09;15.20;99.90
4002;DHT22;2015;48.670;9.060;2023-03-21T12:15:56;15.20;99.90
4002;DHT22;2015;48.670;9.060;2023-03-21T12:21:19;15.30;99.90
4002;DHT22;2015;48.670;9.060;2023-03-21T12:35:28;15.40;97.90
4002;DHT22;2015;48.670;9.060;2023-03-21T12:38:42;15.50;97.20
4002;DHT22;2015;48.670;9.060;2023-03-21T12:41:24;15.70;97.00
4002;DHT22;2015;48.670;9.060;2023-03-21T12:44:07;15.70;95.00
4002;DHT22;2015;48.670;9.060;2023-03-21T12:46:50;15.60;97.70
4002;DHT22;2015;48.670;9.060;2023-03-21T12:49:31;15.80;95.90
4002;DHT22;2015;48.670;9.060;2023-03-21T12:52:11;16.10;94.40
4002;DHT22;2015;48.670;9.060;2023-03-21T12:54:59;16.10;95.50
4002;DHT22;2015;48.670;9.060;2023-03-21T12:57:44;16.00;94.40
4002;DHT22;2015;48.670;9.060;2023-03-21T13:00:46;16.00;93.70
4002;DHT22;2015;48.670;9.060;2023-03-21T13:03:40;16.00;94.50
4002;DHT22;2015;48.670;9.060;2023-03-21T13:06:17;16.10;94.40
4002;DHT22;2015;48.670;9.060;2023-03-21T13:09:02;16.30;93.90
4002;DHT22;2015;48.670;9.060;2023-03-21T13:11:37;16.50;91.30
4002;DHT22;2015;48.670;9.060;2023-03-21T13:14:26;16.40;91.70
4002;DHT22;2015;48.670;9.060;2023-03-21T13:17:05;16.50;91.50
4002;DHT22;2015;48.670;9.060;2023-03-21T13:19:46;16.70;92.00
4002;DHT22;2015;48.670;9.060;2023-03-21T13:27:54;16.50;91.20
4002;DHT22;2015;48.670;9.060;2023-03-21T13:30:31;16.40;92.40
4002;DHT22;2015;48.670;9.060;2023-03-21T13:33:15;16.40;92.50
4002;DHT22;2015;48.670;9.060;2023-03-21T13:36:04;16.40;93.30
4002;DHT22;2015;48.670;9.060;2023-03-21T13:38:37;16.30;93.70
4002;DHT22;2015;48.670;9.060;2023-03-21T13:41:13;16.20;93.70
4002;DHT22;2015;48.670;9.060;2023-03-21T14:00:21;15.90;97.00
4002;DHT22;2015;48.670;9.060;2023-03-21T14:03:11;16.00;97.80
4002;DHT22;2015;48.670;9.060;2023-03-21T14:05:49;15.80;97.00
4002;DHT22;2015;48.670;9.060;2023-03-21T14:08:23;15.70;98.80
4002;DHT22;2015;48.670;9.060;2023-03-21T14:11:12;15.60;98.30
4002;DHT22;2015;48.670;9.060;2023-03-21T14:13:46;15.70;98.90
4002;DHT22;2015;48.670;9.060;2023-03-21T14:16:25;15.80;97.40
4002;DHT22;2015;48.670;9.060;2023-03-21T14:19:03;15.80;97.80
4002;DHT22;2015;48.670;9.060;2023-03-21T14:21:35;15.90;98.00
4002;DHT22;2015;48.670;9.060;2023-03-21T14:24:12;15.90;97.80
4002;DHT22;2015;48.670;9.060;2023-03-21T14:26:53;15.90;98.50
4002;DHT22;2015;48.670;9.060;2023-03-21T14:29:30;16.00;97.70
4002;DHT22;2015;48.670;9.060;2023-03-21T14:32:04;16.00;97.70
4002;DHT22;2015;48.670;9.060;2023-03-21T14:34:36;16.00;97.10
4002;DHT22;2015;48.670;9.060;2023-03-21T14:37:10;16.00;97.20
4002;DHT22;2015;48.670;9.060;2023-03-21T14:39:41;15.90;98.10
4002;DHT22;2015;48.670;9.060;2023-03-21T14:42:14;15.90;97.20
4002;DHT22;2015;48.670;9.060;2023-03-21T14:44:49;16.00;96.90
4002;DHT22;2015;48.670;9.060;2023-03-21T14:47:27;15.90;98.90
4002;DHT22;2015;48.670;9.060;2023-03-21T14:49:59;15.90;97.40
4002;DHT22;2015;48.670;9.060;2023-03-21T14:52:33;15.90;97.20
4002;DHT22;2015;48.670;9.060;2023-03-21T14:55:14;15.80;97.80
4002;DHT22;2015;48.670;9.060;2023-03-21T14:57:47;15.80;99.20
4002;DHT22;2015;48.670;9.060;2023-03-21T15:00:24;15.80;98.10
4002;DHT22;2015;48.670;9.060;2023-03-21T15:02:58;16.00;96.20
4002;DHT22;2015;48.670;9.060;2023-03-21T15:05:33;16.00;97.70
4002;DHT22;2015;48.670;9.060;2023-03-21T15:08:12;16.00;98.00
4002;DHT22;2015;48.670;9.060;2023-03-21T15:11:00;16.10;97.00
4002;DHT22;2015;48.670;9.060;2023-03-21T15:13:46;16.10;96.20
4002;DHT22;2015;48.670;9.060;2023-03-21T15:16:20;16.10;95.00
4002;DHT22;2015;48.670;9.060;2023-03-21T15:18:52;16.00;95.50
4002;DHT22;2015;48.670;9.060;2023-03-21T15:21:29;16.00;95.60
4002;DHT22;2015;48.670;9.060;2023-03-21T15:24:21;16.00;95.20
4002;DHT22;2015;48.670;9.060;2023-03-21T15:27:06;15.90;95.60
4002;DHT22;2015;48.670;9.060;2023-03-21T15:29:38;15.90;95.00
4002;DHT22;2015;48.670;9.060;2023-03-21T15:32:19;15.90;95.50
4002;DHT22;2015;48.670;9.060;2023-03-21T15:34:54;15.80;96.20
4002;DHT22;2015;48.670;9.060;2023-03-21T15:37:31;15.80;95.90
4002;DHT22;2015;48.670;9.060;2023-03-21T15:40:28;15.70;97.10
4002;DHT22;2015;48.670;9.060;2023-03-21T15:43:19;15.60;96.00
4002;DHT22;2015;48.670;9.060;2023-03-21T15:45:53;15.60;95.50
4002;DHT22;2015;48.670;9.060;2023-03-21T15:48:33;15.70;95.40
4002;DHT22;2015;48.670;9.060;2023-03-21T15:51:13;15.60;95.80
4002;DHT22;2015;48.670;9.060;2023-03-21T15:53:47;15.60;95.60
4002;DHT22;2015;48.670;9.060;2023-03-21T15:56:21;15.60;95.70
4002;DHT22;2015;48.670;9.060;2023-03-21T15:58:53;15.50;98.40
4002;DHT22;2015;48.670;9.060;2023-03-21T16:01:24;15.10;99.90
4002;DHT22;2015;48.670;9.060;2023-03-21T16:04:01;14.80;99.90
4002;DHT22;2015;48.670;9.060;2023-03-21T16:06:37;14.70;99.90
4002;DHT22;2015;48.670;9.060;2023-03-21T16:09:17;14.60;99.90
4002;DHT22;2015;48.670;9.060;2023-03-21T16:11:57;14.40;99.90
4002;DHT22;2015;48.670;9.060;2023-03-21T16:14:29;14.40;99.90
4002;DHT22;2015;48.670;9.060;2023-03-21T16:17:16;14.30;99.90
4002;DHT22;2015;48.670;9.060;2023-03-21T16:19:53;14.20;99.90
4002;DHT22;2015;48.670;9.060;2023-03-21T16:22:25;14.10;99.90
4002;DHT22;2015;48.670;9.060;2023-03-21T16:24:57;14.00;99.90
4002;DHT22;2015;48.670;9.060;2023-03-21T16:27:29;13.90;99.90
4002;DHT22;2015;48.670;9.060;2023-03-21T16:30:01;13.80;99.90
4002;DHT22;2015;48.670;9.060;2023-03-21T16:32:33;13.70;99.90
4002;DHT22;2015;48.670;9.060;2023-03-21T16:35:05;13.70;99.90
4002;DHT22;2015;48.670;9.060;2023-03-21T16:37:38;13.60;99.90
4002;DHT22;2015;48.670;9.060;2023-03-21T16:40:34;13.60;99.90
4002;DHT22;2015;48.670;9.060;2023-03-21T16:43:08;13.50;99.90
4002;DHT22;2015;48.670;9.060;2023-03-21T16:45:40;13.40;99.90
4002;DHT22;2015;48.670;9.060;2023-03-21T16:48:12;13.40;99.90
4002;DHT22;2015;48.670;9.060;2023-03-21T16:50:47;13.40;99.90
4002;DHT22;2015;48.670;9.060;2023-03-21T16:53:19;13.30;99.90
4002;DHT22;2015;48.670;9.060;2023-03-21T16:55:51;13.30;99.90
4002;DHT22;2015;48.670;9.060;2023-03-21T16:58:23;13.20;99.90
4002;DHT22;2015;48.670;9.060;2023-03-21T17:00:55;13.20;99.90
4002;DHT22;2015;48.670;9.060;2023-03-21T17:03:27;13.10;99.90
4002;DHT22;2015;48.670;9.060;2023-03-21T17:05:59;13.10;99.90
4002;DHT22;2015;48.670;9.060;2023-03-21T17:08:32;13.00;99.90
4002;DHT22;2015;48.670;9.060;2023-03-21T17:11:04;13.00;99.90
4002;DHT22;2015;48.670;9.060;2023-03-21T17:13:37;12.90;99.90
4002;DHT22;2015;48.670;9.060;2023-03-21T17:16:13;12.90;99.90
4002;DHT22;2015;48.670;9.060;2023-03-21T17:18:46;12.80;99.90
4002;DHT22;2015;48.670;9.060;2023-03-21T17:21:21;12.80;99.90
4002;DHT22;2015;48.670;9.060;2023-03-21T17:23:53;12.70;99.90
4002;DHT22;2015;48.670;9.060;2023-03-21T17:26:27;12.60;99.90
4002;DHT22;2015;48.670;9.060;2023-03-21T17:28:59;12.60;99.90
4002;DHT22;2015;48.670;9.060;2023-03-21T17:31:34;12.60;99.90
4002;DHT22;2015;48.670;9.060;2023-03-21T17:34:06;12.50;99.90
4002;DHT22;2015;48.670;9.060;2023-03-21T17:36:41;12.40;99.90
4002;DHT22;2015;48.670;9.060;2023-03-21T17:39:23;12.40;99.90
4002;DHT22;2015;48.670;9.060;2023-03-21T17:41:55;12.40;99.90
4002;DHT22;2015;48.670;9.060;2023-03-21T17:44:27;12.30;99.90
4002;DHT22;2015;48.670;9.060;2023-03-21T17:46:59;12.20;99.90
4002;DHT22;2015;48.670;9.060;2023-03-21T17:49:31;12.10;99.90
4002;DHT22;2015;48.670;9.060;2023-03-21T17:52:02;12.10;99.90
4002;DHT22;2015;48.670;9.060;2023-03-21T17:54:34;12.10;99.90
4002;DHT22;2015;48.670;9.060;2023-03-21T17:57:09;12.00;99.90
4002;DHT22;2015;48.670;9.060;2023-03-21T17:59:41;12.00;99.90
4002;DHT22;2015;48.670;9.060;2023-03-21T18:02:13;11.90;99.90
4002;DHT22;2015;48.670;9.060;2023-03-21T18:04:45;11.90;99.90
4002;DHT22;2015;48.670;9.060;2023-03-21T18:07:17;11.90;99.90
4002;DHT22;2015;48.670;9.060;2023-03-21T18:10:13;11.90;99.90
4002;DHT22;2015;48.670;9.060;2023-03-21T18:12:45;11.80;99.90
4002;DHT22;2015;48.670;9.060;2023-03-21T18:15:23;11.80;99.90
4002;DHT22;2015;48.670;9.060;2023-03-21T18:17:56;11.70;99.90
4002;DHT22;2015;48.670;9.060;2023-03-21T18:20:28;11.70;99.90
4002;DHT22;2015;48.670;9.060;2023-03-21T18:23:20;11.70;99.90
4002;DHT22;2015;48.670;9.060;2023-03-21T18:25:52;11.70;99.90
4002;DHT22;2015;48.670;9.060;2023-03-21T18:28:24;11.60;99.90
4002;DHT22;2015;48.670;9.060;2023-03-21T18:30:56;11.60;99.90
4002;DHT22;2015;48.670;9.060;2023-03-21T18:33:45;11.60;99.90
4002;DHT22;2015;48.670;9.060;2023-03-21T18:36:20;11.60;99.90
4002;DHT22;2015;48.670;9.060;2023-03-21T18:38:56;11.60;99.90
4002;DHT22;2015;48.670;9.060;2023-03-21T18:41:30;11.60;99.90
4002;DHT22;2015;48.670;9.060;2023-03-21T18:44:02;11.50;99.90
4002;DHT22;2015;48.670;9.060;2023-03-21T18:46:45;11.60;99.90
4002;DHT22;2015;48.670;9.060;2023-03-21T18:49:21;11.70;99.90